sensor_id;sensor_type;location;lat;lon;timestamp;pressure;altitude;pressure_sealevel;temperature;humidity
19508;BME280;40157;42.566;27.526;2023-03-16T00:01:39;99948.34;;;9.91;91.30
19508;BME280;40157;42.566;27.526;2023-03-16T00:03:39;99852.94;;;9.35;91.23
19508;BME280;40157;42.566;27.526;2023-03-16T00:05:40;99916.94;;;9.88;91.34
19508;BME280;40157;42.566;27.526;2023-03-16T00:07:40;99913.44;;;9.82;91.22
19508;BME280;40157;42.566;27.526;2023-03-16T00:09:41;99930.94;;;9.93;91.57
19508;BME280;40157;42.566;27.526;2023-03-16T00:11:41;99842.41;;;9.27;91.83
19508;BME280;40157;42.566;27.526;2023-03-16T00:13:42;99929.16;;;9.89;91.84
19508;BME280;40157;42.566;27.526;2023-03-16T00:15:54;99940.56;;;9.98;91.92
19508;BME280;40157;42.566;27.526;2023-03-16T00:17:54;99861.75;;;9.54;91.67
19508;BME280;40157;42.566;27.526;2023-03-16T00:19:56;99905.56;;;9.84;91.64
19508;BME280;40157;42.566;27.526;2023-03-16T00:21:57;99845.13;;;9.45;91.54
19508;BME280;40157;42.566;27.526;2023-03-16T00:23:57;99950.19;;;10.01;91.64
19508;BME280;40157;42.566;27.526;2023-03-16T00:25:59;99939.72;;;10.01;91.88
19508;BME280;40157;42.566;27.526;2023-03-16T00:27:59;99912.50;;;9.79;92.03
19508;BME280;40157;42.566;27.526;2023-03-16T00:30:04;99894.19;;;9.74;92.18
19508;BME280;40157;42.566;27.526;2023-03-16T00:32:05;99842.50;;;9.39;92.33
19508;BME280;40157;42.566;27.526;2023-03-16T00:34:05;99912.59;;;9.90;92.63
19508;BME280;40157;42.566;27.526;2023-03-16T00:36:06;99934.47;;;10.01;92.66
19508;BME280;40157;42.566;27.526;2023-03-16T00:38:10;99903.81;;;9.83;92.71
19508;BME280;40157;42.566;27.526;2023-03-16T00:40:11;99881.09;;;9.74;93.10
19508;BME280;40157;42.566;27.526;2023-03-16T00:42:13;99927.50;;;10.03;92.87
19508;BME280;40157;42.566;27.526;2023-03-16T00:44:14;99824.19;;;9.39;93.16
19508;BME280;40157;42.566;27.526;2023-03-16T00:46:16;99906.47;;;9.89;93.12
19508;BME280;40157;42.566;27.526;2023-03-16T00:48:16;99836.41;;;9.43;93.03
19508;BME280;40157;42.566;27.526;2023-03-16T00:50:17;99804.97;;;9.36;93.35
19508;BME280;40157;42.566;27.526;2023-03-16T00:52:21;99873.22;;;9.77;93.49
19508;BME280;40157;42.566;27.526;2023-03-16T00:54:22;99926.63;;;10.07;93.72
19508;BME280;40157;42.566;27.526;2023-03-16T00:56:23;99832.94;;;9.49;93.58
19508;BME280;40157;42.566;27.526;2023-03-16T00:58:23;99896.00;;;9.88;93.64
19508;BME280;40157;42.566;27.526;2023-03-16T01:00:24;99843.41;;;9.51;93.63
19508;BME280;40157;42.566;27.526;2023-03-16T01:02:27;99913.53;;;10.01;93.85
19508;BME280;40157;42.566;27.526;2023-03-16T01:04:27;99952.00;;;10.14;93.96
19508;BME280;40157;42.566;27.526;2023-03-16T01:06:28;99907.38;;;9.97;93.53
19508;BME280;40157;42.566;27.526;2023-03-16T01:08:29;99857.53;;;9.71;93.33
19508;BME280;40157;42.566;27.526;2023-03-16T01:10:29;99953.84;;;10.34;93.21
19508;BME280;40157;42.566;27.526;2023-03-16T01:12:30;99947.75;;;10.32;92.92
19508;BME280;40157;42.566;27.526;2023-03-16T01:14:32;99903.06;;;10.03;92.67
19508;BME280;40157;42.566;27.526;2023-03-16T01:16:34;99956.56;;;10.55;92.49
19508;BME280;40157;42.566;27.526;2023-03-16T01:18:34;99938.25;;;10.52;92.12
19508;BME280;40157;42.566;27.526;2023-03-16T01:20:35;99967.13;;;10.69;92.06
19508;BME280;40157;42.566;27.526;2023-03-16T01:22:35;99960.09;;;10.67;91.72
19508;BME280;40157;42.566;27.526;2023-03-16T01:24:37;99935.63;;;10.60;91.64
19508;BME280;40157;42.566;27.526;2023-03-16T01:26:38;99899.72;;;10.33;91.59
19508;BME280;40157;42.566;27.526;2023-03-16T01:28:39;99896.22;;;10.37;91.60
19508;BME280;40157;42.566;27.526;2023-03-16T01:30:39;99884.88;;;10.33;91.56
19508;BME280;40157;42.566;27.526;2023-03-16T01:32:40;99970.66;;;10.87;91.90
19508;BME280;40157;42.566;27.526;2023-03-16T01:34:40;99958.41;;;10.80;91.75
19508;BME280;40157;42.566;27.526;2023-03-16T01:36:41;99829.75;;;10.07;91.42
19508;BME280;40157;42.566;27.526;2023-03-16T01:38:44;99880.56;;;10.49;91.44
19508;BME280;40157;42.566;27.526;2023-03-16T01:40:44;99880.56;;;10.49;91.33
19508;BME280;40157;42.566;27.526;2023-03-16T01:42:59;99973.31;;;11.07;91.46
19508;BME280;40157;42.566;27.526;2023-03-16T01:45:00;99934.81;;;10.90;91.42
19508;BME280;40157;42.566;27.526;2023-03-16T01:47:04;99971.56;;;11.12;91.30
19508;BME280;40157;42.566;27.526;2023-03-16T01:49:20;99978.59;;;11.16;91.29
19508;BME280;40157;42.566;27.526;2023-03-16T01:51:32;99988.19;;;11.16;91.01
19508;BME280;40157;42.566;27.526;2023-03-16T01:53:35;99985.59;;;11.19;91.13
19508;BME280;40157;42.566;27.526;2023-03-16T01:55:36;99973.31;;;11.10;91.26
19508;BME280;40157;42.566;27.526;2023-03-16T01:57:39;99984.72;;;11.21;91.20
19508;BME280;40157;42.566;27.526;2023-03-16T02:00:04;99853.47;;;10.40;91.09
19508;BME280;40157;42.566;27.526;2023-03-16T02:02:10;99989.97;;;11.17;91.40
19508;BME280;40157;42.566;27.526;2023-03-16T02:04:27;99996.06;;;11.19;91.37
19508;BME280;40157;42.566;27.526;2023-03-16T02:06:31;99968.09;;;11.01;91.50
19508;BME280;40157;42.566;27.526;2023-03-16T02:08:34;99936.53;;;10.81;91.58
19508;BME280;40157;42.566;27.526;2023-03-16T02:10:37;99952.31;;;10.91;91.32
19508;BME280;40157;42.566;27.526;2023-03-16T02:12:38;100005.72;;;11.26;91.36
19508;BME280;40157;42.566;27.526;2023-03-16T02:14:38;99991.72;;;11.21;91.32
19508;BME280;40157;42.566;27.526;2023-03-16T02:16:39;99905.06;;;10.64;91.22
19508;BME280;40157;42.566;27.526;2023-03-16T02:18:40;100007.47;;;11.16;91.41
19508;BME280;40157;42.566;27.526;2023-03-16T02:23:17;100001.28;;;10.99;91.17
19508;BME280;40157;42.566;27.526;2023-03-16T02:25:27;99964.50;;;10.80;90.99
19508;BME280;40157;42.566;27.526;2023-03-16T02:27:38;99990.78;;;10.92;90.60
19508;BME280;40157;42.566;27.526;2023-03-16T02:32:07;99964.50;;;10.80;90.28
19508;BME280;40157;42.566;27.526;2023-03-16T02:34:09;99977.59;;;10.77;90.15
19508;BME280;40157;42.566;27.526;2023-03-16T02:36:09;99940.00;;;10.63;90.19
19508;BME280;40157;42.566;27.526;2023-03-16T02:38:12;99996.91;;;10.98;90.13
19508;BME280;40157;42.566;27.526;2023-03-16T02:40:24;100008.28;;;11.00;89.93
19508;BME280;40157;42.566;27.526;2023-03-16T02:42:26;99999.53;;;10.95;89.91
19508;BME280;40157;42.566;27.526;2023-03-16T02:44:31;99982.03;;;10.84;89.93
19508;BME280;40157;42.566;27.526;2023-03-16T02:46:36;99989.03;;;10.91;89.96
19508;BME280;40157;42.566;27.526;2023-03-16T02:50:46;99980.28;;;10.86;89.89
19508;BME280;40157;42.566;27.526;2023-03-16T02:52:47;99940.88;;;10.62;89.75
19508;BME280;40157;42.566;27.526;2023-03-16T02:54:48;99989.00;;;10.88;89.77
19508;BME280;40157;42.566;27.526;2023-03-16T02:56:49;99950.47;;;10.60;89.74
19508;BME280;40157;42.566;27.526;2023-03-16T02:58:49;100029.28;;;11.03;89.96
19508;BME280;40157;42.566;27.526;2023-03-16T03:00:50;100017.03;;;11.02;90.14
19508;BME280;40157;42.566;27.526;2023-03-16T03:02:50;100015.28;;;11.02;90.21
19508;BME280;40157;42.566;27.526;2023-03-16T03:04:51;99996.03;;;10.92;90.08
19508;BME280;40157;42.566;27.526;2023-03-16T03:06:53;99996.03;;;10.88;90.09
19508;BME280;40157;42.566;27.526;2023-03-16T03:08:55;99981.13;;;10.76;90.29
19508;BME280;40157;42.566;27.526;2023-03-16T03:10:55;100018.78;;;11.03;90.58
19508;BME280;40157;42.566;27.526;2023-03-16T03:12:56;99963.59;;;10.67;90.76
19508;BME280;40157;42.566;27.526;2023-03-16T03:14:56;99988.13;;;10.83;91.02
19508;BME280;40157;42.566;27.526;2023-03-16T03:16:57;99988.13;;;10.83;91.06
19508;BME280;40157;42.566;27.526;2023-03-16T03:18:58;99988.16;;;10.89;91.25
19508;BME280;40157;42.566;27.526;2023-03-16T03:20:58;99976.78;;;10.84;91.49
19508;BME280;40157;42.566;27.526;2023-03-16T03:22:59;100024.06;;;11.06;91.67
19508;BME280;40157;42.566;27.526;2023-03-16T03:24:59;99999.53;;;10.91;91.93
19508;BME280;40157;42.566;27.526;2023-03-16T03:27:01;100005.63;;;10.89;92.04
19508;BME280;40157;42.566;27.526;2023-03-16T03:29:05;100029.28;;;11.03;92.32
19508;BME280;40157;42.566;27.526;2023-03-16T03:31:06;99981.13;;;10.74;92.56
19508;BME280;40157;42.566;27.526;2023-03-16T03:33:07;99990.75;;;10.80;92.83
19508;BME280;40157;42.566;27.526;2023-03-16T03:35:08;99998.63;;;10.85;92.99
19508;BME280;40157;42.566;27.526;2023-03-16T03:37:11;100012.63;;;10.90;93.01
19508;BME280;40157;42.566;27.526;2023-03-16T03:39:12;99988.09;;;10.79;92.88
19508;BME280;40157;42.566;27.526;2023-03-16T03:41:12;100024.03;;;11.00;92.85
19508;BME280;40157;42.566;27.526;2023-03-16T03:43:12;100013.50;;;10.84;93.11
19508;BME280;40157;42.566;27.526;2023-03-16T03:45:13;100040.56;;;10.83;93.17
19508;BME280;40157;42.566;27.526;2023-03-16T03:47:14;100054.56;;;10.87;93.67
19508;BME280;40157;42.566;27.526;2023-03-16T03:49:15;100045.78;;;10.77;94.07
19508;BME280;40157;42.566;27.526;2023-03-16T03:51:15;100041.44;;;10.79;94.50
19508;BME280;40157;42.566;27.526;2023-03-16T03:53:16;100046.69;;;10.78;94.68
19508;BME280;40157;42.566;27.526;2023-03-16T03:55:17;100030.03;;;10.66;94.87
19508;BME280;40157;42.566;27.526;2023-03-16T03:57:17;100044.06;;;10.78;94.95
19508;BME280;40157;42.566;27.526;2023-03-16T03:59:17;100053.66;;;10.80;95.16
19508;BME280;40157;42.566;27.526;2023-03-16T04:01:18;99962.56;;;10.30;94.61
19508;BME280;40157;42.566;27.526;2023-03-16T04:03:18;100034.41;;;10.75;94.60
19508;BME280;40157;42.566;27.526;2023-03-16T04:05:19;100055.44;;;10.87;94.01
19508;BME280;40157;42.566;27.526;2023-03-16T04:07:19;100034.41;;;10.72;93.86
19508;BME280;40157;42.566;27.526;2023-03-16T04:09:20;100037.91;;;10.71;93.55
19508;BME280;40157;42.566;27.526;2023-03-16T04:11:20;100049.31;;;10.79;92.84
19508;BME280;40157;42.566;27.526;2023-03-16T04:13:21;99960.78;;;10.27;92.38
19508;BME280;40157;42.566;27.526;2023-03-16T04:15:22;100059.81;;;10.88;92.25
19508;BME280;40157;42.566;27.526;2023-03-16T04:17:22;100055.41;;;10.77;91.67
19508;BME280;40157;42.566;27.526;2023-03-16T04:19:23;100086.94;;;10.93;90.85
19508;BME280;40157;42.566;27.526;2023-03-16T04:21:24;100057.19;;;10.88;90.44
19508;BME280;40157;42.566;27.526;2023-03-16T04:23:25;100043.22;;;10.86;89.67
19508;BME280;40157;42.566;27.526;2023-03-16T04:25:26;99994.16;;;10.58;88.82
19508;BME280;40157;42.566;27.526;2023-03-16T04:27:27;100041.44;;;10.87;88.56
19508;BME280;40157;42.566;27.526;2023-03-16T04:29:27;100022.09;;;10.55;86.53
19508;BME280;40157;42.566;27.526;2023-03-16T04:31:28;100060.69;;;10.86;86.29
19508;BME280;40157;42.566;27.526;2023-03-16T04:33:29;100070.25;;;10.81;85.20
19508;BME280;40157;42.566;27.526;2023-03-16T04:35:31;100029.06;;;10.50;84.39
19508;BME280;40157;42.566;27.526;2023-03-16T04:37:31;100048.31;;;10.52;84.04
19508;BME280;40157;42.566;27.526;2023-03-16T04:39:33;100074.53;;;10.59;83.29
19508;BME280;40157;42.566;27.526;2023-03-16T04:41:34;100054.44;;;10.54;83.12
19508;BME280;40157;42.566;27.526;2023-03-16T04:43:34;100090.31;;;10.68;83.51
19508;BME280;40157;42.566;27.526;2023-03-16T04:45:34;100064.00;;;10.46;83.03
19508;BME280;40157;42.566;27.526;2023-03-16T04:47:35;100083.22;;;10.48;82.40
19508;BME280;40157;42.566;27.526;2023-03-16T04:49:37;100102.53;;;10.63;82.62
19508;BME280;40157;42.566;27.526;2023-03-16T04:51:37;100106.91;;;10.67;82.51
19508;BME280;40157;42.566;27.526;2023-03-16T04:53:39;100108.72;;;10.82;86.05
19508;BME280;40157;42.566;27.526;2023-03-16T04:55:40;100063.34;;;10.97;91.57
19508;BME280;40157;42.566;27.526;2023-03-16T04:57:41;100071.25;;;11.06;90.00
19508;BME280;40157;42.566;27.526;2023-03-16T04:59:41;100093.19;;;11.36;91.73
19508;BME280;40157;42.566;27.526;2023-03-16T05:01:42;100095.88;;;11.48;90.14
19508;BME280;40157;42.566;27.526;2023-03-16T05:03:43;100107.25;;;11.53;87.46
19508;BME280;40157;42.566;27.526;2023-03-16T05:05:45;100105.50;;;11.58;84.20
19508;BME280;40157;42.566;27.526;2023-03-16T05:07:46;100090.63;;;11.56;82.71
19508;BME280;40157;42.566;27.526;2023-03-16T05:09:47;100136.19;;;11.78;80.11
19508;BME280;40157;42.566;27.526;2023-03-16T05:11:47;100099.38;;;11.56;77.77
19508;BME280;40157;42.566;27.526;2023-03-16T05:13:48;100151.06;;;11.85;76.67
19508;BME280;40157;42.566;27.526;2023-03-16T05:15:48;100123.91;;;11.68;76.07
19508;BME280;40157;42.566;27.526;2023-03-16T05:17:49;100123.91;;;11.68;75.39
19508;BME280;40157;42.566;27.526;2023-03-16T05:19:50;100172.97;;;11.84;75.35
19508;BME280;40157;42.566;27.526;2023-03-16T05:21:51;100132.63;;;11.63;75.87
19508;BME280;40157;42.566;27.526;2023-03-16T05:23:51;100151.03;;;11.56;75.41
19508;BME280;40157;42.566;27.526;2023-03-16T05:25:52;100112.41;;;11.28;75.64
19508;BME280;40157;42.566;27.526;2023-03-16T05:27:52;100160.59;;;11.43;74.84
19508;BME280;40157;42.566;27.526;2023-03-16T05:29:53;100140.41;;;11.26;75.19
19508;BME280;40157;42.566;27.526;2023-03-16T05:31:53;100129.91;;;11.23;75.26
19508;BME280;40157;42.566;27.526;2023-03-16T05:33:54;100150.94;;;11.33;74.77
19508;BME280;40157;42.566;27.526;2023-03-16T05:35:55;100097.44;;;10.93;74.36
19508;BME280;40157;42.566;27.526;2023-03-16T05:37:57;100157.91;;;11.32;74.95
19508;BME280;40157;42.566;27.526;2023-03-16T05:39:57;100139.50;;;11.18;75.26
19508;BME280;40157;42.566;27.526;2023-03-16T05:41:58;100134.22;;;11.12;74.83
19508;BME280;40157;42.566;27.526;2023-03-16T05:43:58;100175.34;;;11.13;74.60
19508;BME280;40157;42.566;27.526;2023-03-16T05:45:59;100149.03;;;11.02;75.19
19508;BME280;40157;42.566;27.526;2023-03-16T05:47:59;100157.81;;;11.03;75.07
19508;BME280;40157;42.566;27.526;2023-03-16T05:50:00;100169.16;;;11.02;75.25
19508;BME280;40157;42.566;27.526;2023-03-16T05:52:00;100127.03;;;10.76;75.61
19508;BME280;40157;42.566;27.526;2023-03-16T05:54:00;100171.75;;;10.97;75.78
19508;BME280;40157;42.566;27.526;2023-03-16T05:56:01;100183.09;;;10.91;76.33
19508;BME280;40157;42.566;27.526;2023-03-16T05:58:01;100171.69;;;10.86;76.48
19508;BME280;40157;42.566;27.526;2023-03-16T06:00:04;100183.94;;;10.86;76.63
19508;BME280;40157;42.566;27.526;2023-03-16T06:02:13;100180.41;;;10.78;77.31
19508;BME280;40157;42.566;27.526;2023-03-16T06:04:14;100177.78;;;10.79;77.72
19508;BME280;40157;42.566;27.526;2023-03-16T06:06:15;100175.16;;;10.79;77.95
19508;BME280;40157;42.566;27.526;2023-03-16T06:08:16;100162.84;;;10.72;78.11
19508;BME280;40157;42.566;27.526;2023-03-16T06:10:17;100167.28;;;10.76;78.31
19508;BME280;40157;42.566;27.526;2023-03-16T06:12:17;100191.78;;;10.84;78.42
19508;BME280;40157;42.566;27.526;2023-03-16T06:14:18;100184.78;;;10.83;78.67
19508;BME280;40157;42.566;27.526;2023-03-16T06:16:18;100143.59;;;10.64;78.71
19508;BME280;40157;42.566;27.526;2023-03-16T06:18:19;100162.84;;;10.69;78.54
19508;BME280;40157;42.566;27.526;2023-03-16T06:20:20;100150.53;;;10.59;78.64
19508;BME280;40157;42.566;27.526;2023-03-16T06:22:21;100194.41;;;10.83;78.63
19508;BME280;40157;42.566;27.526;2023-03-16T06:24:23;100180.34;;;10.70;78.52
19508;BME280;40157;42.566;27.526;2023-03-16T06:26:23;100219.81;;;10.93;78.79
19508;BME280;40157;42.566;27.526;2023-03-16T06:28:24;100207.59;;;10.97;78.65
19508;BME280;40157;42.566;27.526;2023-03-16T06:30:24;100216.31;;;10.96;78.68
19508;BME280;40157;42.566;27.526;2023-03-16T06:32:25;100228.66;;;11.06;78.41
19508;BME280;40157;42.566;27.526;2023-03-16T06:34:25;100179.50;;;10.77;78.08
19508;BME280;40157;42.566;27.526;2023-03-16T06:36:26;100234.75;;;11.05;77.13
19508;BME280;40157;42.566;27.526;2023-03-16T06:38:26;100226.81;;;10.92;76.98
19508;BME280;40157;42.566;27.526;2023-03-16T06:40:27;100240.78;;;10.91;76.66
19508;BME280;40157;42.566;27.526;2023-03-16T06:42:28;100241.72;;;11.00;76.67
19508;BME280;40157;42.566;27.526;2023-03-16T06:44:28;100163.66;;;10.59;76.44
19508;BME280;40157;42.566;27.526;2023-03-16T06:46:29;100264.56;;;11.15;76.60
19508;BME280;40157;42.566;27.526;2023-03-16T06:48:29;100231.22;;;11.00;76.78
19508;BME280;40157;42.566;27.526;2023-03-16T06:50:30;100224.13;;;10.83;76.94
19508;BME280;40157;42.566;27.526;2023-03-16T06:52:30;100247.84;;;11.02;77.00
19508;BME280;40157;42.566;27.526;2023-03-16T06:54:31;100243.47;;;10.98;76.92
19508;BME280;40157;42.566;27.526;2023-03-16T06:56:34;100258.38;;;11.06;76.96
19508;BME280;40157;42.566;27.526;2023-03-16T06:58:34;100223.25;;;10.81;77.06
19508;BME280;40157;42.566;27.526;2023-03-16T07:00:35;100258.28;;;10.96;77.04
19508;BME280;40157;42.566;27.526;2023-03-16T07:02:36;100279.44;;;11.14;77.26
19508;BME280;40157;42.566;27.526;2023-03-16T07:04:39;100282.03;;;11.14;77.40
19508;BME280;40157;42.566;27.526;2023-03-16T07:06:39;100281.19;;;11.18;77.42
19508;BME280;40157;42.566;27.526;2023-03-16T07:08:40;100257.44;;;10.97;77.39
19508;BME280;40157;42.566;27.526;2023-03-16T07:10:41;100281.13;;;11.06;77.14
19508;BME280;40157;42.566;27.526;2023-03-16T07:12:42;100292.56;;;11.20;77.18
19508;BME280;40157;42.566;27.526;2023-03-16T07:14:43;100267.97;;;11.03;77.17
19508;BME280;40157;42.566;27.526;2023-03-16T07:16:44;100226.69;;;10.77;77.56
19508;BME280;40157;42.566;27.526;2023-03-16T07:18:44;100269.63;;;10.91;77.67
19508;BME280;40157;42.566;27.526;2023-03-16T07:20:48;100275.81;;;11.00;77.99
19508;BME280;40157;42.566;27.526;2023-03-16T07:22:49;100302.16;;;11.15;78.21
19508;BME280;40157;42.566;27.526;2023-03-16T07:24:49;100318.84;;;11.25;78.37
19508;BME280;40157;42.566;27.526;2023-03-16T07:26:56;100300.41;;;11.14;78.80
19508;BME280;40157;42.566;27.526;2023-03-16T07:29:02;100246.00;;;10.88;79.19
19508;BME280;40157;42.566;27.526;2023-03-16T07:31:06;100301.25;;;11.10;79.40
19508;BME280;40157;42.566;27.526;2023-03-16T07:33:06;100317.03;;;11.16;79.54
19508;BME280;40157;42.566;27.526;2023-03-16T07:35:10;100224.84;;;10.64;79.42
19508;BME280;40157;42.566;27.526;2023-03-16T07:37:11;100338.09;;;11.30;78.98
19508;BME280;40157;42.566;27.526;2023-03-16T07:39:12;100219.69;;;10.74;78.29
19508;BME280;40157;42.566;27.526;2023-03-16T07:41:13;100272.28;;;10.95;78.28
19508;BME280;40157;42.566;27.526;2023-03-16T07:43:13;100321.47;;;11.26;78.12
19508;BME280;40157;42.566;27.526;2023-03-16T07:45:14;100302.13;;;11.12;77.94
19508;BME280;40157;42.566;27.526;2023-03-16T07:47:17;100343.38;;;11.33;78.16
19508;BME280;40157;42.566;27.526;2023-03-16T07:49:17;100300.41;;;11.17;78.58
19508;BME280;40157;42.566;27.526;2023-03-16T07:51:17;100271.44;;;11.00;78.89
19508;BME280;40157;42.566;27.526;2023-03-16T07:53:18;100334.63;;;11.29;79.43
19508;BME280;40157;42.566;27.526;2023-03-16T07:55:19;100260.84;;;10.86;79.63
19508;BME280;40157;42.566;27.526;2023-03-16T07:57:25;100344.25;;;11.34;79.11
19508;BME280;40157;42.566;27.526;2023-03-16T07:59:26;100310.78;;;11.00;78.95
19508;BME280;40157;42.566;27.526;2023-03-16T08:01:27;100335.47;;;11.28;78.68
19508;BME280;40157;42.566;27.526;2023-03-16T08:03:28;100275.75;;;10.93;78.27
19508;BME280;40157;42.566;27.526;2023-03-16T08:05:29;100323.19;;;11.21;78.39
19508;BME280;40157;42.566;27.526;2023-03-16T08:07:31;100232.66;;;10.56;78.68
19508;BME280;40157;42.566;27.526;2023-03-16T08:09:32;100346.00;;;11.32;78.90
19508;BME280;40157;42.566;27.526;2023-03-16T08:11:35;100314.38;;;11.13;79.16
19508;BME280;40157;42.566;27.526;2023-03-16T08:13:35;100365.25;;;11.34;79.51
19508;BME280;40157;42.566;27.526;2023-03-16T08:15:36;100289.72;;;10.88;79.38
19508;BME280;40157;42.566;27.526;2023-03-16T08:17:36;100349.56;;;11.40;79.46
19508;BME280;40157;42.566;27.526;2023-03-16T08:19:43;100335.47;;;11.28;79.52
19508;BME280;40157;42.566;27.526;2023-03-16T08:21:44;100360.06;;;11.40;79.68
19508;BME280;40157;42.566;27.526;2023-03-16T08:23:47;100279.28;;;10.96;79.66
19508;BME280;40157;42.566;27.526;2023-03-16T08:25:52;100333.72;;;11.29;79.68
19508;BME280;40157;42.566;27.526;2023-03-16T08:27:53;100233.59;;;10.64;79.55
19508;BME280;40157;42.566;27.526;2023-03-16T08:29:54;100340.69;;;11.21;80.24
19508;BME280;40157;42.566;27.526;2023-03-16T08:31:55;100366.09;;;11.28;80.06
19508;BME280;40157;42.566;27.526;2023-03-16T08:33:55;100270.34;;;10.72;80.32
19508;BME280;40157;42.566;27.526;2023-03-16T08:35:59;100245.78;;;10.58;80.50
19508;BME280;40157;42.566;27.526;2023-03-16T08:38:00;100361.78;;;11.35;80.66
19508;BME280;40157;42.566;27.526;2023-03-16T08:40:01;100353.81;;;11.25;79.93
19508;BME280;40157;42.566;27.526;2023-03-16T08:42:02;100363.50;;;11.36;79.88
19508;BME280;40157;42.566;27.526;2023-03-16T08:44:03;100374.09;;;11.45;79.49
19508;BME280;40157;42.566;27.526;2023-03-16T08:46:04;100368.78;;;11.39;79.45
19508;BME280;40157;42.566;27.526;2023-03-16T08:48:04;100358.25;;;11.36;79.17
19508;BME280;40157;42.566;27.526;2023-03-16T08:50:07;100364.47;;;11.47;79.49
19508;BME280;40157;42.566;27.526;2023-03-16T08:52:08;100295.00;;;10.92;79.12
19508;BME280;40157;42.566;27.526;2023-03-16T08:54:12;100381.13;;;11.49;79.19
19508;BME280;40157;42.566;27.526;2023-03-16T08:56:13;100380.25;;;11.52;79.26
19508;BME280;40157;42.566;27.526;2023-03-16T08:58:13;100372.38;;;11.53;79.34
19508;BME280;40157;42.566;27.526;2023-03-16T09:00:14;100368.03;;;11.55;79.54
19508;BME280;40157;42.566;27.526;2023-03-16T09:02:17;100346.06;;;11.41;79.45
19508;BME280;40157;42.566;27.526;2023-03-16T09:04:17;100346.06;;;11.38;79.77
19508;BME280;40157;42.566;27.526;2023-03-16T09:06:20;100353.03;;;11.37;79.60
19508;BME280;40157;42.566;27.526;2023-03-16T09:08:21;100367.09;;;11.47;79.53
19508;BME280;40157;42.566;27.526;2023-03-16T09:10:22;100346.97;;;11.43;79.73
19508;BME280;40157;42.566;27.526;2023-03-16T09:12:22;100357.47;;;11.46;79.71
19508;BME280;40157;42.566;27.526;2023-03-16T09:14:24;100328.47;;;11.24;80.07
19508;BME280;40157;42.566;27.526;2023-03-16T09:16:24;100382.88;;;11.50;80.04
19508;BME280;40157;42.566;27.526;2023-03-16T09:18:26;100358.25;;;11.36;80.15
19508;BME280;40157;42.566;27.526;2023-03-16T09:20:26;100368.84;;;11.46;80.38
19508;BME280;40157;42.566;27.526;2023-03-16T09:22:27;100374.13;;;11.51;80.67
19508;BME280;40157;42.566;27.526;2023-03-16T09:24:28;100386.41;;;11.55;80.63
19508;BME280;40157;42.566;27.526;2023-03-16T09:26:28;100382.88;;;11.52;80.69
19508;BME280;40157;42.566;27.526;2023-03-16T09:28:29;100376.72;;;11.46;80.76
19508;BME280;40157;42.566;27.526;2023-03-16T09:30:30;100389.03;;;11.57;80.70
19508;BME280;40157;42.566;27.526;2023-03-16T09:32:32;100322.28;;;11.18;80.57
19508;BME280;40157;42.566;27.526;2023-03-16T09:34:32;100394.25;;;11.52;80.49
19508;BME280;40157;42.566;27.526;2023-03-16T09:36:33;100331.03;;;11.20;80.84
19508;BME280;40157;42.566;27.526;2023-03-16T09:38:34;100398.63;;;11.50;80.87
19508;BME280;40157;42.566;27.526;2023-03-16T09:40:36;100396.81;;;11.40;81.31
19508;BME280;40157;42.566;27.526;2023-03-16T09:42:41;100397.72;;;11.46;81.59
19508;BME280;40157;42.566;27.526;2023-03-16T09:47:11;100375.63;;;11.18;82.22
19508;BME280;40157;42.566;27.526;2023-03-16T09:49:15;100405.41;;;11.23;82.13
19508;BME280;40157;42.566;27.526;2023-03-16T09:51:26;100395.72;;;11.13;82.36
19508;BME280;40157;42.566;27.526;2023-03-16T09:53:35;100398.31;;;11.11;82.77
19508;BME280;40157;42.566;27.526;2023-03-16T09:55:38;100313.06;;;10.59;82.60
19508;BME280;40157;42.566;27.526;2023-03-16T09:57:44;100399.19;;;11.12;82.35
19508;BME280;40157;42.566;27.526;2023-03-16T09:59:45;100395.63;;;11.01;83.08
19508;BME280;40157;42.566;27.526;2023-03-16T10:02:15;100399.16;;;11.06;83.32
19508;BME280;40157;42.566;27.526;2023-03-16T10:04:39;100407.03;;;11.06;83.50
19508;BME280;40157;42.566;27.526;2023-03-16T10:07:03;100394.75;;;11.02;83.93
19508;BME280;40157;42.566;27.526;2023-03-16T10:09:31;100392.03;;;10.91;84.00
19508;BME280;40157;42.566;27.526;2023-03-16T10:11:44;100389.38;;;10.89;84.40
19508;BME280;40157;42.566;27.526;2023-03-16T10:14:00;100383.22;;;10.87;84.77
19508;BME280;40157;42.566;27.526;2023-03-16T10:16:13;100398.19;;;10.96;84.77
19508;BME280;40157;42.566;27.526;2023-03-16T10:18:19;100364.72;;;10.70;84.54
19508;BME280;40157;42.566;27.526;2023-03-16T10:20:23;100395.50;;;10.88;85.28
19508;BME280;40157;42.566;27.526;2023-03-16T10:22:31;100391.09;;;10.87;85.63
19508;BME280;40157;42.566;27.526;2023-03-16T10:26:56;100391.03;;;10.78;86.71
19508;BME280;40157;42.566;27.526;2023-03-16T10:29:00;100368.25;;;10.71;86.26
19508;BME280;40157;42.566;27.526;2023-03-16T10:31:00;100365.50;;;10.62;87.09
19508;BME280;40157;42.566;27.526;2023-03-16T10:33:31;100394.44;;;10.68;87.31
19508;BME280;40157;42.566;27.526;2023-03-16T10:35:43;100394.47;;;10.71;86.71
19508;BME280;40157;42.566;27.526;2023-03-16T10:37:46;100384.84;;;10.73;86.72
19508;BME280;40157;42.566;27.526;2023-03-16T10:39:48;100392.69;;;10.70;86.48
19508;BME280;40157;42.566;27.526;2023-03-16T10:41:56;100375.03;;;10.53;86.80
19508;BME280;40157;42.566;27.526;2023-03-16T10:44:02;100373.31;;;10.52;86.55
19508;BME280;40157;42.566;27.526;2023-03-16T10:46:09;100371.44;;;10.45;87.37